Time;durP1;ratioP1;P1;durP2;ratioP2;P2;SDS_P1;SDS_P2;PMS_P1;PMS_P2;Temp;Humidity;BMP_temperature;BMP_pressure;BME280_temperature;BME280_humidity;BME280_pressure;Samples;Min_cycle;Max_cycle;Signal;HPM_P1;HPM_P2
2021/08/15 01:23:18;;;;;;;;;;;;;;;;;;;;;
2021/08/15 02:21:23;;;;;;;7.63;6.83;;;25.90;58.10;;;;;;5731383;25;20432;-91
2021/08/15 02:27:09;;;;;;;7.50;6.60;;;26.00;58.10;;;;;;5736058;24;20396;-91
2021/08/15 02:29:58;;;;;;;6.27;5.70;;;26.00;58.00;;;;;;5679123;25;20474;-91
2021/08/15 02:32:26;;;;;;;7.60;6.90;;;26.00;57.70;;;;;;5681164;25;20407;-91
2021/08/15 02:35:02;;;;;;;6.20;5.60;;;26.00;57.70;;;;;;5777471;24;20396;-91
2021/08/15 02:37:56;;;;;;;6.70;5.90;;;26.00;57.60;;;;;;5808196;24;20488;-90
2021/08/15 02:40:51;;;;;;;6.30;5.70;;;26.00;57.60;;;;;;5858130;24;20747;-91
2021/08/15 02:43:19;;;;;;;6.57;5.67;;;26.00;57.60;;;;;;5971768;23;20418;-91
2021/08/15 02:46:09;;;;;;;7.13;6.43;;;26.00;57.60;;;;;;6114770;23;20381;-91
2021/08/15 02:48:52;;;;;;;7.10;6.37;;;26.00;57.60;;;;;;6133940;23;20392;-91
2021/08/15 02:51:27;;;;;;;6.50;5.90;;;26.00;57.60;;;;;;6119130;23;20428;-90
2021/08/15 02:57:38;;;;;;;7.30;6.30;;;26.00;57.50;;;;;;6257408;22;20369;-91
2021/08/15 03:00:55;;;;;;;;;;;;;;;;;;;;;
2021/08/15 03:03:19;;;;;;;6.60;6.00;;;26.00;57.40;;;;;;6226650;22;20437;-91
2021/08/15 03:06:25;;;;;;;;;;;;;;;;;;;;;
2021/08/15 03:09:21;;;;;;;;;;;;;;;;;;;;;
2021/08/15 03:12:21;;;;;;;;;;;;;;;;;;;;;
2021/08/15 03:15:40;;;;;;;;;;;;;;;;;;;;;
2021/08/15 03:22:12;;;;;;;6.40;5.80;;;26.00;57.50;;;;;;6173759;23;20368;-91
2021/08/15 03:24:59;;;;;;;6.00;5.43;;;25.90;57.40;;;;;;6172217;23;20371;-91
2021/08/15 03:27:48;;;;;;;;;;;;;;;;;;;;;
2021/08/15 03:41:36;;;;;;;;;;;;;;;;;;;;;
2021/08/15 03:48:49;;;;;;;6.03;5.43;;;25.90;57.10;;;;;;6018738;23;20713;-92
2021/08/15 03:51:59;;;;;;;;;;;;;;;;;;;;;
2021/08/15 04:01:47;;;;;;;7.17;6.47;;;25.80;57.00;;;;;;6014896;23;20396;-92
2021/08/15 04:04:27;;;;;;;6.90;6.20;;;25.80;57.10;;;;;;6004875;23;20389;-92
2021/08/15 04:07:20;;;;;;;5.90;5.40;;;25.80;57.10;;;;;;6027839;23;20381;-90
2021/08/15 04:09:46;;;;;;;7.50;5.30;;;25.80;57.00;;;;;;6000528;23;20424;-91
2021/08/15 04:12:17;;;;;;;6.90;6.20;;;25.80;57.00;;;;;;6049259;23;20746;-88
2021/08/15 04:14:43;;;;;;;5.80;5.30;;;25.90;56.80;;;;;;6025125;23;20186;-88
2021/08/15 04:17:18;;;;;;;12.50;6.33;;;25.90;56.80;;;;;;6003517;23;20396;-88
2021/08/15 04:19:52;;;;;;;6.97;6.30;;;25.90;56.90;;;;;;6002417;23;20391;-87
2021/08/15 04:22:27;;;;;;;6.87;5.90;;;25.90;56.90;;;;;;6002611;23;20388;-88
2021/08/15 04:25:05;;;;;;;8.90;5.70;;;25.90;56.70;;;;;;6024095;23;20388;-88
2021/08/15 04:27:42;;;;;;;6.30;5.70;;;25.90;56.80;;;;;;6049541;23;20392;-87
2021/08/15 04:30:09;;;;;;;5.90;5.23;;;25.90;56.80;;;;;;6026154;23;20602;-88
2021/08/15 04:32:35;;;;;;;8.40;6.00;;;25.90;56.80;;;;;;6025761;23;20452;-89
2021/08/15 04:35:01;;;;;;;9.83;6.53;;;26.00;56.60;;;;;;6029210;23;20411;-87
2021/08/15 04:37:30;;;;;;;6.07;5.47;;;25.90;56.50;;;;;;6130674;23;20393;-88
2021/08/15 04:39:56;;;;;;;6.47;5.87;;;26.00;56.60;;;;;;6266835;22;20173;-87
2021/08/15 04:42:22;;;;;;;6.40;5.80;;;26.00;56.70;;;;;;6267026;22;20374;-88
2021/08/15 04:44:51;;;;;;;6.30;5.70;;;26.00;56.80;;;;;;6290811;22;20378;-87
2021/08/15 04:47:17;;;;;;;5.60;5.10;;;25.90;56.70;;;;;;6266765;23;20388;-88
2021/08/15 04:49:45;;;;;;;6.03;5.20;;;25.90;56.70;;;;;;6267715;23;20425;-89
2021/08/15 04:52:31;;;;;;;;;;;;;;;;;;;;;
2021/08/15 04:54:57;;;;;;;5.07;4.63;;;25.90;56.60;;;;;;6237911;23;20397;-88
2021/08/15 04:57:23;;;;;;;5.60;5.10;;;25.90;56.60;;;;;;6210987;23;20382;-89
2021/08/15 04:59:51;;;;;;;9.07;5.10;;;25.90;56.60;;;;;;6236430;23;20378;-89
2021/08/15 05:02:24;;;;;;;5.37;4.87;;;25.90;56.70;;;;;;6237565;23;20178;-89
2021/08/15 05:05:02;;;;;;;5.07;4.67;;;25.90;56.70;;;;;;6236249;23;20362;-87
2021/08/15 05:07:29;;;;;;;5.70;4.57;;;25.90;56.80;;;;;;6234307;23;20462;-87
2021/08/15 05:09:55;;;;;;;5.83;4.77;;;25.90;56.80;;;;;;6209845;23;20426;-88
2021/08/15 05:12:21;;;;;;;6.07;5.47;;;25.90;56.80;;;;;;6210064;23;20154;-88
2021/08/15 05:14:47;;;;;;;6.23;5.37;;;25.90;56.80;;;;;;6235810;23;20453;-88
2021/08/15 05:17:16;;;;;;;6.60;5.47;;;25.90;56.90;;;;;;6210017;23;20709;-86
2021/08/15 05:19:42;;;;;;;7.97;5.33;;;25.90;56.90;;;;;;6210476;23;20143;-88
2021/08/15 05:22:08;;;;;;;6.83;6.10;;;25.90;56.80;;;;;;6210421;23;20374;-88
2021/08/15 05:24:36;;;;;;;5.30;4.80;;;25.90;56.90;;;;;;6210605;23;20147;-88
2021/08/15 05:27:05;;;;;;;5.77;4.70;;;25.90;56.90;;;;;;6209406;23;20215;-88
2021/08/15 05:29:31;;;;;;;7.10;5.07;;;25.90;56.90;;;;;;6210847;23;20497;-83
2021/08/15 05:31:56;;;;;;;5.53;4.70;;;25.90;56.90;;;;;;6210133;23;20382;-89
2021/08/15 05:34:22;;;;;;;10.30;5.30;;;25.90;56.90;;;;;;6236877;23;20149;-89
2021/08/15 05:36:53;;;;;;;7.30;4.77;;;25.90;56.90;;;;;;6236211;23;20150;-88
2021/08/15 05:39:21;;;;;;;5.43;4.60;;;25.90;57.00;;;;;;6237078;23;20355;-89
2021/08/15 05:41:47;;;;;;;5.67;5.17;;;25.90;57.00;;;;;;6236534;23;20370;-88
2021/08/15 05:44:13;;;;;;;6.10;5.50;;;25.90;57.00;;;;;;6210410;23;20405;-88
2021/08/15 05:46:38;;;;;;;7.63;4.93;;;25.90;57.00;;;;;;6238173;23;20127;-88
2021/08/15 05:49:05;;;;;;;5.40;4.90;;;25.90;57.10;;;;;;6236333;23;20143;-88
2021/08/15 05:51:33;;;;;;;5.67;5.17;;;25.90;57.10;;;;;;6210239;23;20155;-87
2021/08/15 05:53:59;;;;;;;6.70;5.57;;;25.90;57.00;;;;;;6235458;23;20449;-89
2021/08/15 05:56:24;;;;;;;7.20;5.30;;;25.90;56.90;;;;;;6182739;23;20397;-85
2021/08/15 05:58:50;;;;;;;6.47;5.80;;;25.90;56.90;;;;;;6236783;23;20158;-86
2021/08/15 06:01:16;;;;;;;5.80;5.30;;;25.90;56.90;;;;;;6211641;23;20165;-85
2021/08/15 06:03:42;;;;;;;5.97;4.60;;;25.90;56.90;;;;;;6210820;23;20185;-86
2021/08/15 06:06:13;;;;;;;5.70;5.20;;;25.90;56.90;;;;;;6177768;23;20379;-85
2021/08/15 06:08:39;;;;;;;7.27;5.70;;;25.90;56.90;;;;;;6208776;23;20132;-84
2021/08/15 06:11:06;;;;;;;6.27;5.30;;;25.90;57.00;;;;;;6183362;23;20449;-84
2021/08/15 06:13:33;;;;;;;5.73;5.23;;;25.90;57.00;;;;;;6158185;23;20156;-84
2021/08/15 06:15:59;;;;;;;5.87;5.17;;;25.90;57.00;;;;;;6182977;23;20379;-84
2021/08/15 06:18:25;;;;;;;5.70;5.20;;;25.90;57.00;;;;;;6182414;23;20430;-84
2021/08/15 06:20:54;;;;;;;6.30;4.77;;;25.90;57.00;;;;;;6159698;23;20406;-84
2021/08/15 06:23:20;;;;;;;5.73;5.03;;;25.90;57.00;;;;;;6209106;23;20379;-84
2021/08/15 06:25:48;;;;;;;6.00;5.17;;;25.90;57.00;;;;;;6183219;23;20410;-84
2021/08/15 06:28:14;;;;;;;7.83;4.77;;;25.90;57.10;;;;;;6182989;23;20841;-84
2021/08/15 06:30:40;;;;;;;5.93;4.57;;;25.90;57.10;;;;;;6157878;23;20415;-84
2021/08/15 06:33:08;;;;;;;5.93;5.00;;;25.90;57.10;;;;;;6208846;23;20368;-84
2021/08/15 06:35:37;;;;;;;5.77;5.00;;;25.90;57.10;;;;;;6182709;23;20383;-84
2021/08/15 06:38:04;;;;;;;9.17;5.10;;;25.90;57.10;;;;;;6209130;23;20367;-84
2021/08/15 06:40:34;;;;;;;5.37;4.87;;;25.90;57.10;;;;;;6158724;23;20394;-84
2021/08/15 06:43:11;;;;;;;4.83;4.43;;;26.00;57.20;;;;;;6183754;23;20406;-84
2021/08/15 06:45:40;;;;;;;5.57;4.43;;;26.00;57.20;;;;;;6183190;23;20393;-84
2021/08/15 06:48:17;;;;;;;5.50;4.70;;;25.90;57.20;;;;;;6184156;23;20406;-84
2021/08/15 06:50:53;;;;;;;5.87;4.40;;;26.00;57.30;;;;;;6183643;23;20422;-84
2021/08/15 06:53:23;;;;;;;5.00;4.60;;;25.90;57.20;;;;;;6193829;23;20776;-83
2021/08/15 06:55:53;;;;;;;5.97;5.37;;;25.90;57.20;;;;;;6239973;23;20358;-83
2021/08/15 06:58:18;;;;;;;5.20;4.70;;;25.90;57.20;;;;;;6213274;23;20389;-84
2021/08/15 07:00:44;;;;;;;6.37;4.90;;;25.90;57.30;;;;;;6239472;23;20382;-83
2021/08/15 07:03:11;;;;;;;10.93;4.53;;;26.00;57.30;;;;;;6265001;23;20159;-84
2021/08/15 07:05:48;;;;;;;5.23;4.73;;;26.00;57.30;;;;;;6239753;23;20155;-83
2021/08/15 07:08:26;;;;;;;5.23;4.73;;;26.00;57.40;;;;;;6264599;23;20390;-84
2021/08/15 07:11:05;;;;;;;6.53;5.00;;;26.00;57.40;;;;;;6239814;23;20417;-83
2021/08/15 07:13:32;;;;;;;5.47;4.90;;;26.00;57.40;;;;;;6214590;23;20409;-84
2021/08/15 07:16:03;;;;;;;5.47;4.10;;;26.00;57.40;;;;;;6265081;23;20374;-84
2021/08/15 07:18:29;;;;;;;4.90;4.50;;;26.00;57.40;;;;;;6240656;23;20366;-85
2021/08/15 07:21:00;;;;;;;4.80;4.40;;;26.00;57.40;;;;;;6265309;23;20378;-84
2021/08/15 07:23:29;;;;;;;4.60;4.20;;;26.00;57.40;;;;;;6265509;23;20405;-84
2021/08/15 07:25:55;;;;;;;4.57;4.17;;;25.90;57.40;;;;;;6239219;23;20392;-84
2021/08/15 07:28:25;;;;;;;4.83;4.30;;;26.00;57.40;;;;;;6240431;23;20397;-83
2021/08/15 07:30:53;;;;;;;5.10;4.50;;;26.00;57.40;;;;;;6238263;23;20430;-84
2021/08/15 07:33:22;;;;;;;4.20;3.77;;;26.00;57.40;;;;;;6264571;23;20374;-84
2021/08/15 07:35:50;;;;;;;6.17;5.07;;;26.00;57.40;;;;;;6240004;23;20395;-84
2021/08/15 07:38:18;;;;;;;4.30;3.93;;;26.00;57.50;;;;;;6240585;23;20362;-84
2021/08/15 07:40:48;;;;;;;4.20;3.90;;;26.00;57.50;;;;;;6240659;23;20382;-84
2021/08/15 07:43:48;;;;;;;5.20;4.40;;;26.00;57.50;;;;;;6239958;23;20386;-85
2021/08/15 07:46:17;;;;;;;5.37;4.50;;;26.00;57.40;;;;;;6214970;23;20409;-84
2021/08/15 07:48:43;;;;;;;5.10;4.70;;;26.00;57.50;;;;;;6266589;23;20462;-85
2021/08/15 07:51:11;;;;;;;4.77;4.37;;;26.00;57.50;;;;;;6240683;23;20459;-84
2021/08/15 07:53:45;;;;;;;6.53;4.13;;;26.00;57.50;;;;;;6240588;23;20398;-84
2021/08/15 07:56:19;;;;;;;4.90;4.43;;;26.00;57.50;;;;;;6239776;23;20358;-85
2021/08/15 07:58:46;;;;;;;7.53;4.43;;;26.00;57.50;;;;;;6239697;23;20338;-85
2021/08/15 08:01:12;;;;;;;5.00;4.50;;;26.00;57.50;;;;;;6263827;23;20382;-85
2021/08/15 08:03:38;;;;;;;5.43;4.77;;;26.00;57.50;;;;;;6238236;23;20413;-85
2021/08/15 08:06:04;;;;;;;4.50;4.10;;;26.00;57.50;;;;;;6236150;23;20382;-85
2021/08/15 08:08:58;;;;;;;4.63;4.20;;;26.00;57.50;;;;;;6262919;23;20433;-85
2021/08/15 08:11:24;;;;;;;5.20;4.70;;;26.10;57.60;;;;;;6238309;23;20179;-85
2021/08/15 08:13:50;;;;;;;4.83;4.43;;;26.00;57.50;;;;;;6237696;23;20405;-85
2021/08/15 08:16:16;;;;;;;5.30;4.73;;;26.00;57.50;;;;;;6239643;23;20371;-85
2021/08/15 08:18:44;;;;;;;5.03;4.63;;;26.00;57.50;;;;;;6263877;23;20374;-85
2021/08/15 08:21:11;;;;;;;5.10;4.60;;;26.00;57.50;;;;;;6263979;23;20413;-85
2021/08/15 08:23:40;;;;;;;4.67;4.27;;;26.00;57.50;;;;;;6238166;23;20378;-85
2021/08/15 08:26:07;;;;;;;4.70;4.30;;;26.00;57.50;;;;;;6239037;23;20370;-85
2021/08/15 08:28:35;;;;;;;4.97;4.47;;;26.00;57.50;;;;;;6264202;23;20378;-84
2021/08/15 08:34:28;;;;;;;4.30;3.87;;;26.10;57.50;;;;;;6239985;23;20381;-85
2021/08/15 08:37:00;;;;;;;5.30;4.30;;;26.00;57.60;;;;;;6263704;23;20381;-85
2021/08/15 08:39:29;;;;;;;5.03;4.10;;;26.00;57.60;;;;;;6238425;23;20378;-85
2021/08/15 08:42:02;;;;;;;4.23;3.83;;;26.00;57.60;;;;;;6240138;23;20361;-84
2021/08/15 08:44:34;;;;;;;7.03;4.83;;;26.10;57.60;;;;;;6238206;23;20379;-85
2021/08/15 08:47:15;;;;;;;5.17;4.67;;;26.10;57.60;;;;;;6239755;23;20378;-82
2021/08/15 08:49:45;;;;;;;4.90;4.40;;;26.10;57.60;;;;;;6239516;23;20516;-85
2021/08/15 08:52:20;;;;;;;4.67;4.27;;;26.00;57.60;;;;;;6237006;23;20438;-85
2021/08/15 08:54:52;;;;;;;4.87;4.37;;;26.10;57.60;;;;;;6214616;23;20402;-84
2021/08/15 08:57:18;;;;;;;4.80;4.33;;;26.10;57.70;;;;;;6238272;23;20370;-84
2021/08/15 08:59:44;;;;;;;4.80;4.40;;;26.10;57.70;;;;;;6263391;23;20385;-84
2021/08/15 09:02:11;;;;;;;6.63;5.50;;;26.10;57.70;;;;;;6213009;23;20417;-84
2021/08/15 09:04:42;;;;;;;4.77;4.37;;;26.10;57.60;;;;;;6236432;23;20394;-84
2021/08/15 09:07:24;;;;;;;4.50;4.10;;;26.10;57.60;;;;;;6238915;23;20382;-84
2021/08/15 09:09:56;;;;;;;5.27;3.83;;;26.10;57.60;;;;;;6238756;23;20449;-84
2021/08/15 09:12:55;;;;;;;4.80;4.40;;;26.10;57.70;;;;;;6238160;23;20438;-84
2021/08/15 09:15:22;;;;;;;4.37;3.97;;;26.10;57.60;;;;;;6094755;23;20393;-84
2021/08/15 09:17:54;;;;;;;4.30;4.00;;;26.10;57.70;;;;;;6094341;23;20362;-84
2021/08/15 09:20:37;;;;;;;5.33;4.63;;;26.10;57.70;;;;;;6096081;23;20939;-84
2021/08/15 09:23:28;;;;;;;4.33;3.93;;;26.10;57.70;;;;;;6118327;23;20370;-84
2021/08/15 09:26:21;;;;;;;4.50;4.10;;;26.10;57.60;;;;;;6118494;23;20378;-84
2021/08/15 09:28:59;;;;;;;4.77;4.27;;;26.10;57.70;;;;;;6117773;23;20786;-84
2021/08/15 09:31:32;;;;;;;4.40;4.00;;;26.10;57.70;;;;;;6094033;23;20425;-84
2021/08/15 09:34:00;;;;;;;4.80;4.30;;;26.10;57.70;;;;;;6095084;23;20453;-84
2021/08/15 09:36:34;;;;;;;5.00;4.43;;;26.10;57.70;;;;;;6094799;23;20378;-84
2021/08/15 09:39:11;;;;;;;4.53;4.13;;;26.10;57.70;;;;;;6112658;23;20378;-84
2021/08/15 09:41:50;;;;;;;4.50;4.10;;;26.10;57.70;;;;;;6117572;23;20452;-84
2021/08/15 09:44:21;;;;;;;4.13;3.70;;;26.10;57.70;;;;;;6118594;23;20429;-84
2021/08/15 09:47:12;;;;;;;4.90;4.50;;;26.10;57.70;;;;;;6094014;23;20398;-84
2021/08/15 09:49:46;;;;;;;4.50;4.10;;;26.10;57.70;;;;;;6118277;23;20425;-84
2021/08/15 09:52:14;;;;;;;4.90;4.50;;;26.10;58.20;;;;;;6183226;23;20429;-84
2021/08/15 09:54:51;;;;;;;4.33;3.90;;;26.10;57.70;;;;;;6227655;23;20386;-84
2021/08/15 09:57:33;;;;;;;4.80;4.30;;;26.10;57.70;;;;;;6181924;23;20393;-84
2021/08/15 10:00:20;;;;;;;4.70;4.20;;;26.10;57.70;;;;;;6158029;23;20410;-84
2021/08/15 10:02:49;;;;;;;5.10;4.70;;;26.10;57.70;;;;;;6182751;23;20374;-84
2021/08/15 10:05:16;;;;;;;5.80;5.30;;;26.10;57.70;;;;;;6207159;23;20433;-84
2021/08/15 10:07:50;;;;;;;4.33;3.93;;;26.10;57.70;;;;;;6182564;23;20383;-84
2021/08/15 10:10:25;;;;;;;4.70;4.13;;;26.10;57.70;;;;;;6181520;23;20419;-84
2021/08/15 10:12:51;;;;;;;5.30;4.80;;;26.10;57.70;;;;;;6182311;23;20370;-84
2021/08/15 10:15:17;;;;;;;4.47;4.07;;;26.10;57.70;;;;;;6158053;23;20387;-84
2021/08/15 10:17:46;;;;;;;4.70;4.30;;;26.10;57.70;;;;;;6208987;23;20382;-84
2021/08/15 10:20:27;;;;;;;4.93;4.43;;;26.10;57.70;;;;;;6183096;23;20168;-84
2021/08/15 10:23:12;;;;;;;4.73;4.00;;;26.10;57.70;;;;;;6208463;23;20355;-84
2021/08/15 10:25:43;;;;;;;3.83;3.53;;;26.10;57.70;;;;;;6182762;23;20371;-84
2021/08/15 10:28:30;;;;;;;4.27;3.73;;;26.10;57.70;;;;;;6182253;23;20406;-84
2021/08/15 10:30:58;;;;;;;5.77;4.53;;;26.10;57.60;;;;;;6206917;23;20423;-84
2021/08/15 10:33:31;;;;;;;4.37;3.97;;;26.10;57.70;;;;;;6156961;23;20400;-84
2021/08/15 10:36:20;;;;;;;4.20;3.80;;;26.10;57.70;;;;;;6184730;23;20437;-84
2021/08/15 10:38:48;;;;;;;4.10;3.70;;;26.20;57.70;;;;;;6184895;23;20383;-84
2021/08/15 10:41:35;;;;;;;4.90;4.40;;;26.10;57.70;;;;;;6135706;23;20395;-84
2021/08/15 10:44:03;;;;;;;4.33;3.93;;;26.10;57.70;;;;;;6164162;23;20391;-84
2021/08/15 10:46:29;;;;;;;4.20;3.80;;;26.10;57.70;;;;;;6184231;23;20387;-84
2021/08/15 10:49:09;;;;;;;4.10;3.70;;;26.10;57.70;;;;;;6183921;23;20390;-84
2021/08/15 10:51:54;;;;;;;4.83;4.33;;;26.20;57.70;;;;;;6210279;23;20401;-84
2021/08/15 10:54:27;;;;;;;5.13;4.63;;;26.10;57.60;;;;;;6188974;23;20400;-84
2021/08/15 10:57:04;;;;;;;4.70;4.20;;;26.20;57.70;;;;;;6184393;23;20394;-84
2021/08/15 10:59:48;;;;;;;4.77;4.37;;;26.20;57.70;;;;;;6207561;23;20375;-84
2021/08/15 11:02:16;;;;;;;4.43;3.83;;;26.20;57.80;;;;;;6183807;23;20430;-85
2021/08/15 11:05:02;;;;;;;4.10;3.80;;;26.20;57.80;;;;;;6209121;23;20378;-85
2021/08/15 11:07:39;;;;;;;4.80;4.40;;;26.20;57.70;;;;;;6209991;23;20363;-84
2021/08/15 11:10:06;;;;;;;3.83;3.53;;;26.20;57.70;;;;;;6183942;23;20465;-84
2021/08/15 11:12:33;;;;;;;4.77;4.27;;;26.20;57.70;;;;;;6209841;23;20382;-84
2021/08/15 11:15:09;;;;;;;4.90;4.10;;;26.20;57.70;;;;;;6183797;23;20383;-84
2021/08/15 11:17:37;;;;;;;4.07;3.67;;;26.20;57.70;;;;;;6184162;23;20358;-84
2021/08/15 11:20:36;;;;;;;4.50;4.10;;;26.20;57.70;;;;;;6209732;23;20367;-84
2021/08/15 11:23:25;;;;;;;5.00;3.80;;;26.20;57.70;;;;;;6209925;23;20418;-84
2021/08/15 11:25:52;;;;;;;4.83;4.00;;;26.20;57.70;;;;;;6159153;23;20379;-84
2021/08/15 11:28:21;;;;;;;4.33;3.93;;;26.20;57.70;;;;;;6159081;23;20446;-85
2021/08/15 11:30:56;;;;;;;4.13;3.83;;;26.20;57.70;;;;;;6182965;23;20481;-84
2021/08/15 11:33:26;;;;;;;4.03;3.63;;;26.20;57.70;;;;;;6178293;23;20463;-84
2021/08/15 11:35:55;;;;;;;4.13;3.70;;;26.20;58.30;;;;;;6183338;23;20486;-85
2021/08/15 11:38:21;;;;;;;4.17;3.77;;;26.20;57.70;;;;;;6158931;23;20387;-84
2021/08/15 11:40:49;;;;;;;5.80;4.20;;;26.20;57.70;;;;;;6158250;23;20402;-84
2021/08/15 11:43:19;;;;;;;4.10;3.70;;;26.20;57.70;;;;;;6209754;23;20375;-85
2021/08/15 11:45:48;;;;;;;4.50;4.10;;;26.20;57.70;;;;;;6159229;23;20386;-84
2021/08/15 11:48:17;;;;;;;4.20;3.80;;;26.20;58.30;;;;;;6209940;23;20367;-84
2021/08/15 11:50:48;;;;;;;4.20;3.80;;;26.20;57.70;;;;;;6209668;23;20415;-84
2021/08/15 11:53:25;;;;;;;4.23;3.93;;;26.20;57.70;;;;;;6209885;23;20362;-84
2021/08/15 11:55:53;;;;;;;4.10;3.80;;;26.20;57.70;;;;;;6215890;23;20494;-84
2021/08/15 12:01:09;;;;;;;4.40;3.83;;;26.20;57.70;;;;;;6209158;23;20531;-84
2021/08/15 12:03:35;;;;;;;4.37;3.97;;;26.20;57.70;;;;;;6182769;23;20391;-84
2021/08/15 12:06:08;;;;;;;4.33;3.93;;;26.20;57.70;;;;;;6208931;23;20375;-84
2021/08/15 12:08:54;;;;;;;4.00;3.60;;;26.20;57.70;;;;;;6183391;23;20379;-84
2021/08/15 12:11:29;;;;;;;4.13;3.73;;;26.20;57.60;;;;;;6065629;23;20429;-84
2021/08/15 12:14:09;;;;;;;4.17;3.77;;;26.20;57.70;;;;;;6067323;23;20452;-85
2021/08/15 12:16:40;;;;;;;5.30;4.50;;;26.20;57.60;;;;;;6089168;23;20398;-84
2021/08/15 12:19:06;;;;;;;4.70;4.30;;;26.20;57.70;;;;;;6090550;23;20394;-84
2021/08/15 12:21:37;;;;;;;4.13;3.80;;;26.20;57.70;;;;;;6090466;23;20383;-84
2021/08/15 12:24:15;;;;;;;4.80;4.30;;;26.20;57.70;;;;;;6090256;23;20363;-84
2021/08/15 12:27:02;;;;;;;4.40;4.00;;;26.20;57.70;;;;;;6090342;23;20407;-84
2021/08/15 12:29:38;;;;;;;4.83;4.10;;;26.20;57.70;;;;;;6090169;23;20382;-84
2021/08/15 12:32:08;;;;;;;5.00;4.50;;;26.20;57.70;;;;;;6090322;23;20386;-84
2021/08/15 12:34:42;;;;;;;4.20;3.80;;;26.20;57.70;;;;;;6090384;23;20382;-84
2021/08/15 12:37:25;;;;;;;4.60;4.20;;;26.30;57.70;;;;;;6090240;23;20355;-84
2021/08/15 12:40:11;;;;;;;4.33;3.93;;;26.20;57.70;;;;;;6089713;23;20394;-84
2021/08/15 12:42:39;;;;;;;4.90;4.50;;;26.30;57.70;;;;;;6065830;23;20397;-84
2021/08/15 12:45:12;;;;;;;4.63;4.23;;;26.20;57.70;;;;;;6090479;23;20375;-82
2021/08/15 12:47:46;;;;;;;4.90;4.47;;;26.30;57.70;;;;;;6088900;23;20383;-82
2021/08/15 12:50:18;;;;;;;5.13;4.40;;;26.20;57.70;;;;;;6183498;23;20445;-82
2021/08/15 12:52:55;;;;;;;4.47;4.07;;;26.30;57.70;;;;;;6183396;23;20361;-82
2021/08/15 12:55:35;;;;;;;4.60;3.87;;;26.30;57.70;;;;;;6193002;23;20402;-82
2021/08/15 12:58:08;;;;;;;4.73;4.20;;;26.30;57.70;;;;;;6238946;23;20358;-82
2021/08/15 13:00:44;;;;;;;5.40;4.90;;;26.30;57.70;;;;;;6238847;23;20397;-82
2021/08/15 13:03:14;;;;;;;4.57;4.17;;;26.30;57.70;;;;;;6234747;23;20453;-83
2021/08/15 13:05:44;;;;;;;5.67;5.10;;;26.20;57.60;;;;;;6213101;23;20422;-82
2021/08/15 13:08:14;;;;;;;4.80;4.40;;;26.30;57.70;;;;;;6238004;23;20389;-82
2021/08/15 13:10:44;;;;;;;4.80;4.30;;;26.30;57.70;;;;;;6238663;23;20429;-82
2021/08/15 13:13:14;;;;;;;5.47;4.97;;;26.30;57.60;;;;;;6239506;23;20374;-83
2021/08/15 13:15:40;;;;;;;5.80;5.30;;;26.30;57.60;;;;;;6238369;23;20386;-83
2021/08/15 13:18:08;;;;;;;4.93;4.43;;;26.30;57.60;;;;;;6238964;23;20382;-82
2021/08/15 13:20:34;;;;;;;5.47;4.93;;;26.30;57.60;;;;;;6239714;23;20366;-83
2021/08/15 13:23:01;;;;;;;5.47;4.90;;;26.30;57.60;;;;;;6238095;23;20446;-83
2021/08/15 13:25:27;;;;;;;4.70;4.30;;;26.30;57.60;;;;;;6238868;23;20694;-82
2021/08/15 13:27:54;;;;;;;4.80;4.40;;;26.30;57.50;;;;;;6236195;23;20387;-83
2021/08/15 13:30:20;;;;;;;5.27;4.77;;;26.40;57.60;;;;;;6232377;23;20460;-83
2021/08/15 13:32:45;;;;;;;5.40;4.90;;;26.30;57.50;;;;;;6233101;23;20382;-83
2021/08/15 13:35:13;;;;;;;5.60;5.10;;;26.40;57.60;;;;;;6233611;23;20143;-83
2021/08/15 13:37:40;;;;;;;5.20;4.70;;;26.40;57.60;;;;;;6233471;23;20155;-83
2021/08/15 13:40:08;;;;;;;5.03;4.57;;;26.40;57.60;;;;;;6233945;23;20457;-83
2021/08/15 13:42:35;;;;;;;5.90;5.40;;;26.40;57.60;;;;;;6232027;23;20416;-83
2021/08/15 13:45:03;;;;;;;5.77;5.20;;;26.40;57.60;;;;;;6232866;23;20390;-83
2021/08/15 13:47:29;;;;;;;5.10;4.60;;;26.40;57.60;;;;;;6232710;23;20382;-83
2021/08/15 13:49:55;;;;;;;5.30;4.80;;;26.40;57.50;;;;;;6258037;23;20426;-83
2021/08/15 13:52:24;;;;;;;5.33;4.83;;;26.40;57.50;;;;;;6233718;23;20150;-83
2021/08/15 13:54:51;;;;;;;5.77;5.30;;;26.40;57.50;;;;;;6231929;23;20381;-83
2021/08/15 13:57:17;;;;;;;5.10;4.70;;;26.40;57.50;;;;;;6203042;23;20371;-83
2021/08/15 13:59:43;;;;;;;5.50;5.00;;;26.40;57.50;;;;;;6201348;23;20371;-83
2021/08/15 14:02:09;;;;;;;6.37;5.07;;;26.40;57.50;;;;;;6175348;23;20714;-83
2021/08/15 14:04:35;;;;;;;5.50;5.00;;;26.40;57.50;;;;;;6174735;23;20247;-83
2021/08/15 14:07:07;;;;;;;5.27;4.80;;;26.40;57.50;;;;;;6175732;23;20383;-82
2021/08/15 14:09:32;;;;;;;5.83;5.40;;;26.40;57.50;;;;;;6174353;23;20479;-82
2021/08/15 14:11:58;;;;;;;5.80;5.30;;;26.40;58.10;;;;;;6202058;23;20375;-83
2021/08/15 14:14:25;;;;;;;5.77;4.20;;;26.40;57.50;;;;;;6176057;23;20159;-83
2021/08/15 14:16:50;;;;;;;5.53;5.03;;;26.40;57.50;;;;;;6177308;23;20390;-83
2021/08/15 14:19:16;;;;;;;5.43;4.93;;;26.40;57.50;;;;;;6201790;23;20694;-83
2021/08/15 14:21:42;;;;;;;5.43;4.93;;;26.40;57.50;;;;;;6202811;23;20151;-83
2021/08/15 14:24:08;;;;;;;5.27;4.77;;;26.40;57.50;;;;;;6176861;23;20148;-83
2021/08/15 14:26:33;;;;;;;4.73;4.27;;;26.40;57.50;;;;;;6200335;23;20167;-83
2021/08/15 14:28:59;;;;;;;5.20;4.60;;;26.40;57.50;;;;;;6201685;23;20390;-83
2021/08/15 14:31:25;;;;;;;5.10;4.70;;;26.40;57.40;;;;;;6176570;23;20214;-83
2021/08/15 14:33:54;;;;;;;5.10;4.70;;;26.40;57.40;;;;;;6175466;23;20920;-83
2021/08/15 14:36:19;;;;;;;5.73;5.13;;;26.40;57.40;;;;;;6174554;23;20535;-83
2021/08/15 14:38:46;;;;;;;5.60;5.10;;;26.40;57.50;;;;;;6174676;23;20403;-83
2021/08/15 14:41:11;;;;;;;5.43;4.93;;;26.40;57.50;;;;;;6199921;23;20152;-83
2021/08/15 14:43:39;;;;;;;5.30;4.80;;;26.40;57.40;;;;;;6200420;23;20417;-83
2021/08/15 14:46:05;;;;;;;5.57;5.00;;;26.40;57.40;;;;;;6174176;23;20479;-83
2021/08/15 14:48:32;;;;;;;5.40;4.90;;;26.40;57.40;;;;;;6173757;23;20399;-83
2021/08/15 14:50:58;;;;;;;5.63;5.13;;;26.40;57.40;;;;;;6200321;23;20418;-83
2021/08/15 14:53:24;;;;;;;5.97;5.37;;;26.40;57.40;;;;;;6175028;23;20379;-83
2021/08/15 14:55:49;;;;;;;5.40;4.90;;;26.40;57.50;;;;;;6200459;23;20160;-83
2021/08/15 14:58:15;;;;;;;6.60;5.33;;;26.40;57.40;;;;;;6175209;23;20411;-82
2021/08/15 15:00:41;;;;;;;5.87;5.27;;;26.40;57.40;;;;;;6201961;23;20148;-83
2021/08/15 15:03:07;;;;;;;6.67;4.80;;;26.40;57.40;;;;;;6201364;23;20144;-83
2021/08/15 15:05:33;;;;;;;5.03;4.53;;;26.40;57.40;;;;;;6176623;23;20156;-83
2021/08/15 15:08:02;;;;;;;5.70;5.20;;;26.40;57.40;;;;;;6201988;23;20151;-83
2021/08/15 15:10:27;;;;;;;4.60;4.20;;;26.40;57.50;;;;;;6178179;23;20449;-83
2021/08/15 15:12:53;;;;;;;5.57;5.07;;;26.40;57.40;;;;;;6180060;23;20379;-83
2021/08/15 15:15:19;;;;;;;4.77;4.30;;;26.40;57.40;;;;;;6203712;23;20517;-83
2021/08/15 15:17:47;;;;;;;5.97;5.20;;;26.40;57.40;;;;;;6203458;23;20144;-83
2021/08/15 15:20:15;;;;;;;5.57;5.03;;;26.40;57.40;;;;;;6153119;23;20220;-83
2021/08/15 15:22:41;;;;;;;6.37;5.77;;;26.40;57.40;;;;;;6203270;23;20371;-83
2021/08/15 15:25:08;;;;;;;5.90;5.07;;;26.40;57.50;;;;;;6178734;23;20390;-83
2021/08/15 15:27:34;;;;;;;5.43;5.00;;;26.40;57.40;;;;;;6176729;23;20394;-83
2021/08/15 15:29:59;;;;;;;5.33;4.83;;;26.40;57.50;;;;;;6201739;23;20415;-83
2021/08/15 15:32:25;;;;;;;5.30;4.80;;;26.40;57.50;;;;;;6202327;23;20176;-83
2021/08/15 15:34:51;;;;;;;5.80;5.20;;;26.40;57.50;;;;;;6176136;23;20175;-82
2021/08/15 15:37:16;;;;;;;6.13;5.60;;;26.40;57.50;;;;;;6203154;23;20140;-82
2021/08/15 15:39:42;;;;;;;6.27;5.63;;;26.40;57.50;;;;;;6202555;23;20148;-83
2021/08/15 15:42:08;;;;;;;6.90;6.23;;;26.40;57.40;;;;;;6202301;23;20150;-82
2021/08/15 15:44:34;;;;;;;5.97;5.37;;;26.40;57.50;;;;;;6175682;23;20151;-83
2021/08/15 15:47:03;;;;;;;5.97;5.37;;;26.40;57.50;;;;;;6203031;23;20376;-83
2021/08/15 15:49:29;;;;;;;5.60;5.10;;;26.40;57.50;;;;;;6176521;23;20383;-83
2021/08/15 15:51:55;;;;;;;6.10;5.50;;;26.40;57.50;;;;;;6176548;23;20406;-83
2021/08/15 15:54:21;;;;;;;6.47;5.87;;;26.40;57.50;;;;;;6202872;23;20371;-83
2021/08/15 15:56:47;;;;;;;5.80;5.30;;;26.40;57.50;;;;;;6202659;23;20159;-83
2021/08/15 15:59:12;;;;;;;6.57;5.03;;;26.40;57.50;;;;;;6176961;23;20163;-83
2021/08/15 16:01:38;;;;;;;6.30;5.70;;;26.40;57.50;;;;;;6203385;23;20198;-82
2021/08/15 16:04:04;;;;;;;6.10;5.57;;;26.40;57.60;;;;;;6203161;23;20155;-83
2021/08/15 16:06:30;;;;;;;5.77;5.17;;;26.40;57.50;;;;;;6205211;23;20375;-83
2021/08/15 16:08:56;;;;;;;6.13;5.53;;;26.40;57.50;;;;;;6177790;23;20164;-84
2021/08/15 16:11:22;;;;;;;6.23;5.23;;;26.40;57.50;;;;;;6176889;23;20449;-83
2021/08/15 16:13:48;;;;;;;5.23;4.77;;;26.40;57.60;;;;;;6177937;23;20860;-83
2021/08/15 16:16:14;;;;;;;6.00;5.50;;;26.40;57.60;;;;;;6177098;23;20152;-83
2021/08/15 16:18:39;;;;;;;7.30;5.80;;;26.40;57.50;;;;;;6203658;23;20144;-83